sensor_id;sensor_type;location;lat;lon;timestamp;P1;durP1;ratioP1;P2;durP2;ratioP2
9918;SDS011;4998;51.024;13.828;2024-01-30T00:00:34;15.97;;;11.30;;
9918;SDS011;4998;51.024;13.828;2024-01-30T00:03:02;16.17;;;10.40;;
9918;SDS011;4998;51.024;13.828;2024-01-30T00:05:29;17.67;;;11.20;;
9918;SDS011;4998;51.024;13.828;2024-01-30T00:07:58;15.67;;;11.87;;
9918;SDS011;4998;51.024;13.828;2024-01-30T00:10:25;19.17;;;11.90;;
9918;SDS011;4998;51.024;13.828;2024-01-30T00:12:53;17.07;;;11.60;;
9918;SDS011;4998;51.024;13.828;2024-01-30T00:15:20;17.90;;;11.97;;
9918;SDS011;4998;51.024;13.828;2024-01-30T00:17:47;16.50;;;11.30;;
9918;SDS011;4998;51.024;13.828;2024-01-30T00:20:17;16.63;;;11.60;;
9918;SDS011;4998;51.024;13.828;2024-01-30T00:22:45;18.70;;;12.47;;
9918;SDS011;4998;51.024;13.828;2024-01-30T00:25:13;18.00;;;12.60;;
9918;SDS011;4998;51.024;13.828;2024-01-30T00:27:41;20.50;;;12.27;;
9918;SDS011;4998;51.024;13.828;2024-01-30T00:30:16;17.60;;;12.13;;
9918;SDS011;4998;51.024;13.828;2024-01-30T00:32:44;16.87;;;11.87;;
9918;SDS011;4998;51.024;13.828;2024-01-30T00:35:12;16.30;;;11.90;;
9918;SDS011;4998;51.024;13.828;2024-01-30T00:37:39;15.50;;;10.70;;
9918;SDS011;4998;51.024;13.828;2024-01-30T00:40:07;15.97;;;11.13;;
9918;SDS011;4998;51.024;13.828;2024-01-30T00:42:42;16.07;;;11.00;;
9918;SDS011;4998;51.024;13.828;2024-01-30T00:45:11;15.73;;;11.90;;
9918;SDS011;4998;51.024;13.828;2024-01-30T00:47:39;17.63;;;11.97;;
9918;SDS011;4998;51.024;13.828;2024-01-30T00:50:06;17.27;;;11.87;;
9918;SDS011;4998;51.024;13.828;2024-01-30T00:52:34;14.97;;;10.10;;
9918;SDS011;4998;51.024;13.828;2024-01-30T00:55:01;16.20;;;10.97;;
9918;SDS011;4998;51.024;13.828;2024-01-30T00:57:29;15.47;;;11.43;;
9918;SDS011;4998;51.024;13.828;2024-01-30T00:59:58;16.63;;;11.00;;
9918;SDS011;4998;51.024;13.828;2024-01-30T01:02:25;18.50;;;10.77;;
9918;SDS011;4998;51.024;13.828;2024-01-30T01:04:53;16.30;;;10.60;;
9918;SDS011;4998;51.024;13.828;2024-01-30T01:07:20;17.50;;;10.63;;
9918;SDS011;4998;51.024;13.828;2024-01-30T01:09:47;17.20;;;11.93;;
9918;SDS011;4998;51.024;13.828;2024-01-30T01:12:14;15.40;;;11.23;;
9918;SDS011;4998;51.024;13.828;2024-01-30T01:14:41;16.30;;;11.30;;
9918;SDS011;4998;51.024;13.828;2024-01-30T01:17:10;14.67;;;10.50;;
9918;SDS011;4998;51.024;13.828;2024-01-30T01:19:38;18.37;;;11.00;;
9918;SDS011;4998;51.024;13.828;2024-01-30T01:22:05;14.83;;;10.63;;
9918;SDS011;4998;51.024;13.828;2024-01-30T01:24:33;16.57;;;10.57;;
9918;SDS011;4998;51.024;13.828;2024-01-30T01:27:02;15.87;;;11.00;;
9918;SDS011;4998;51.024;13.828;2024-01-30T01:29:29;19.00;;;10.77;;
9918;SDS011;4998;51.024;13.828;2024-01-30T01:31:57;16.77;;;11.00;;
9918;SDS011;4998;51.024;13.828;2024-01-30T01:34:26;16.60;;;9.90;;
9918;SDS011;4998;51.024;13.828;2024-01-30T01:36:54;16.10;;;11.20;;
9918;SDS011;4998;51.024;13.828;2024-01-30T01:39:22;17.70;;;10.10;;
9918;SDS011;4998;51.024;13.828;2024-01-30T01:41:49;17.63;;;10.87;;
9918;SDS011;4998;51.024;13.828;2024-01-30T01:44:17;14.90;;;10.07;;
9918;SDS011;4998;51.024;13.828;2024-01-30T01:46:44;18.40;;;10.90;;
9918;SDS011;4998;51.024;13.828;2024-01-30T01:49:12;14.50;;;10.20;;
9918;SDS011;4998;51.024;13.828;2024-01-30T01:51:42;16.30;;;10.90;;
9918;SDS011;4998;51.024;13.828;2024-01-30T01:54:12;17.03;;;10.90;;
9918;SDS011;4998;51.024;13.828;2024-01-30T01:56:42;14.70;;;10.70;;
9918;SDS011;4998;51.024;13.828;2024-01-30T01:59:10;16.33;;;10.57;;
9918;SDS011;4998;51.024;13.828;2024-01-30T02:01:37;15.47;;;10.73;;
9918;SDS011;4998;51.024;13.828;2024-01-30T02:04:06;18.90;;;11.03;;
9918;SDS011;4998;51.024;13.828;2024-01-30T02:06:34;13.33;;;10.00;;
9918;SDS011;4998;51.024;13.828;2024-01-30T02:09:03;12.90;;;9.50;;
9918;SDS011;4998;51.024;13.828;2024-01-30T02:11:30;14.83;;;10.23;;
9918;SDS011;4998;51.024;13.828;2024-01-30T02:14:01;17.97;;;10.13;;
9918;SDS011;4998;51.024;13.828;2024-01-30T02:16:30;14.13;;;10.30;;
9918;SDS011;4998;51.024;13.828;2024-01-30T02:18:57;18.30;;;12.03;;
9918;SDS011;4998;51.024;13.828;2024-01-30T02:21:26;15.67;;;10.47;;
9918;SDS011;4998;51.024;13.828;2024-01-30T02:23:54;15.40;;;10.70;;
9918;SDS011;4998;51.024;13.828;2024-01-30T02:26:21;18.10;;;10.70;;
9918;SDS011;4998;51.024;13.828;2024-01-30T02:28:48;17.10;;;11.07;;
9918;SDS011;4998;51.024;13.828;2024-01-30T02:31:16;15.57;;;10.70;;
9918;SDS011;4998;51.024;13.828;2024-01-30T02:33:45;17.33;;;11.77;;
9918;SDS011;4998;51.024;13.828;2024-01-30T02:36:12;13.57;;;10.37;;
9918;SDS011;4998;51.024;13.828;2024-01-30T02:38:42;14.03;;;9.97;;
9918;SDS011;4998;51.024;13.828;2024-01-30T02:41:11;15.47;;;10.80;;
9918;SDS011;4998;51.024;13.828;2024-01-30T02:43:39;16.87;;;11.40;;
9918;SDS011;4998;51.024;13.828;2024-01-30T02:46:06;16.63;;;11.20;;
9918;SDS011;4998;51.024;13.828;2024-01-30T02:48:33;18.30;;;10.97;;
9918;SDS011;4998;51.024;13.828;2024-01-30T02:51:00;15.33;;;10.83;;
9918;SDS011;4998;51.024;13.828;2024-01-30T02:53:28;16.23;;;11.47;;
9918;SDS011;4998;51.024;13.828;2024-01-30T02:55:56;17.07;;;11.63;;
9918;SDS011;4998;51.024;13.828;2024-01-30T02:58:24;16.87;;;10.80;;
9918;SDS011;4998;51.024;13.828;2024-01-30T03:00:51;17.10;;;11.07;;
9918;SDS011;4998;51.024;13.828;2024-01-30T03:03:18;14.90;;;10.57;;
9918;SDS011;4998;51.024;13.828;2024-01-30T03:05:44;15.63;;;10.53;;
9918;SDS011;4998;51.024;13.828;2024-01-30T03:08:11;17.87;;;11.47;;
9918;SDS011;4998;51.024;13.828;2024-01-30T03:10:39;16.40;;;11.43;;
9918;SDS011;4998;51.024;13.828;2024-01-30T03:13:07;17.80;;;12.07;;
9918;SDS011;4998;51.024;13.828;2024-01-30T03:15:35;16.90;;;11.13;;
9918;SDS011;4998;51.024;13.828;2024-01-30T03:18:02;18.80;;;11.37;;
9918;SDS011;4998;51.024;13.828;2024-01-30T03:20:30;18.13;;;11.37;;
9918;SDS011;4998;51.024;13.828;2024-01-30T03:22:59;15.70;;;11.23;;
9918;SDS011;4998;51.024;13.828;2024-01-30T03:25:26;17.03;;;11.57;;
9918;SDS011;4998;51.024;13.828;2024-01-30T03:27:53;20.70;;;11.30;;
9918;SDS011;4998;51.024;13.828;2024-01-30T03:30:22;17.53;;;10.87;;
9918;SDS011;4998;51.024;13.828;2024-01-30T03:32:49;17.80;;;10.47;;
9918;SDS011;4998;51.024;13.828;2024-01-30T03:35:18;18.90;;;11.00;;
9918;SDS011;4998;51.024;13.828;2024-01-30T03:37:45;15.47;;;10.20;;
9918;SDS011;4998;51.024;13.828;2024-01-30T03:40:12;17.40;;;11.47;;
9918;SDS011;4998;51.024;13.828;2024-01-30T03:42:40;15.43;;;11.13;;
9918;SDS011;4998;51.024;13.828;2024-01-30T03:45:08;21.53;;;11.63;;
9918;SDS011;4998;51.024;13.828;2024-01-30T03:47:37;19.47;;;10.50;;
9918;SDS011;4998;51.024;13.828;2024-01-30T03:50:04;16.47;;;10.90;;
9918;SDS011;4998;51.024;13.828;2024-01-30T03:52:32;15.10;;;10.40;;
9918;SDS011;4998;51.024;13.828;2024-01-30T03:54:59;17.00;;;11.30;;
9918;SDS011;4998;51.024;13.828;2024-01-30T03:57:27;16.57;;;10.50;;
9918;SDS011;4998;51.024;13.828;2024-01-30T03:59:54;16.50;;;10.43;;
9918;SDS011;4998;51.024;13.828;2024-01-30T04:02:21;15.27;;;10.80;;
9918;SDS011;4998;51.024;13.828;2024-01-30T04:04:50;20.03;;;12.33;;
9918;SDS011;4998;51.024;13.828;2024-01-30T04:07:17;17.57;;;11.00;;
9918;SDS011;4998;51.024;13.828;2024-01-30T04:09:44;17.80;;;10.93;;
9918;SDS011;4998;51.024;13.828;2024-01-30T04:12:11;16.90;;;10.80;;
9918;SDS011;4998;51.024;13.828;2024-01-30T04:14:39;15.63;;;10.93;;
9918;SDS011;4998;51.024;13.828;2024-01-30T04:17:06;18.80;;;11.67;;
9918;SDS011;4998;51.024;13.828;2024-01-30T04:19:36;14.83;;;11.07;;
9918;SDS011;4998;51.024;13.828;2024-01-30T04:22:06;17.03;;;11.37;;
9918;SDS011;4998;51.024;13.828;2024-01-30T04:24:33;15.60;;;10.77;;
9918;SDS011;4998;51.024;13.828;2024-01-30T04:27:00;18.80;;;12.03;;
9918;SDS011;4998;51.024;13.828;2024-01-30T04:29:28;16.50;;;12.20;;
9918;SDS011;4998;51.024;13.828;2024-01-30T04:31:55;17.07;;;11.03;;
9918;SDS011;4998;51.024;13.828;2024-01-30T04:34:23;16.40;;;11.17;;
9918;SDS011;4998;51.024;13.828;2024-01-30T04:36:50;15.77;;;11.00;;
9918;SDS011;4998;51.024;13.828;2024-01-30T04:39:19;17.40;;;11.07;;
9918;SDS011;4998;51.024;13.828;2024-01-30T04:41:46;15.07;;;10.47;;
9918;SDS011;4998;51.024;13.828;2024-01-30T04:44:13;15.17;;;10.27;;
9918;SDS011;4998;51.024;13.828;2024-01-30T04:46:41;16.57;;;10.80;;
9918;SDS011;4998;51.024;13.828;2024-01-30T04:49:08;16.33;;;11.07;;
9918;SDS011;4998;51.024;13.828;2024-01-30T04:51:35;17.33;;;11.27;;
9918;SDS011;4998;51.024;13.828;2024-01-30T04:54:02;15.70;;;10.70;;
9918;SDS011;4998;51.024;13.828;2024-01-30T04:56:32;14.93;;;10.63;;
9918;SDS011;4998;51.024;13.828;2024-01-30T04:58:59;16.80;;;11.33;;
9918;SDS011;4998;51.024;13.828;2024-01-30T05:01:27;17.90;;;11.70;;
9918;SDS011;4998;51.024;13.828;2024-01-30T05:03:54;17.33;;;11.27;;
9918;SDS011;4998;51.024;13.828;2024-01-30T05:06:25;17.90;;;11.27;;
9918;SDS011;4998;51.024;13.828;2024-01-30T05:08:52;18.50;;;11.23;;
9918;SDS011;4998;51.024;13.828;2024-01-30T05:11:20;15.70;;;11.27;;
9918;SDS011;4998;51.024;13.828;2024-01-30T05:13:48;18.07;;;11.30;;
9918;SDS011;4998;51.024;13.828;2024-01-30T05:16:16;16.63;;;11.00;;
9918;SDS011;4998;51.024;13.828;2024-01-30T05:18:43;17.13;;;10.50;;
9918;SDS011;4998;51.024;13.828;2024-01-30T05:21:10;14.80;;;10.00;;
9918;SDS011;4998;51.024;13.828;2024-01-30T05:23:37;15.43;;;10.70;;
9918;SDS011;4998;51.024;13.828;2024-01-30T05:26:06;16.10;;;10.27;;
9918;SDS011;4998;51.024;13.828;2024-01-30T05:28:34;15.73;;;11.40;;
9918;SDS011;4998;51.024;13.828;2024-01-30T05:31:03;19.90;;;11.10;;
9918;SDS011;4998;51.024;13.828;2024-01-30T05:33:30;17.90;;;11.30;;
9918;SDS011;4998;51.024;13.828;2024-01-30T05:35:57;17.93;;;11.17;;
9918;SDS011;4998;51.024;13.828;2024-01-30T05:38:24;16.53;;;11.10;;
9918;SDS011;4998;51.024;13.828;2024-01-30T05:40:51;14.80;;;10.80;;
9918;SDS011;4998;51.024;13.828;2024-01-30T05:43:19;19.13;;;11.07;;
9918;SDS011;4998;51.024;13.828;2024-01-30T05:45:46;17.90;;;11.30;;
9918;SDS011;4998;51.024;13.828;2024-01-30T05:48:14;14.47;;;11.63;;
9918;SDS011;4998;51.024;13.828;2024-01-30T05:50:41;17.73;;;11.50;;
9918;SDS011;4998;51.024;13.828;2024-01-30T05:53:08;16.57;;;11.07;;
9918;SDS011;4998;51.024;13.828;2024-01-30T05:55:36;18.80;;;11.13;;
9918;SDS011;4998;51.024;13.828;2024-01-30T05:58:03;14.90;;;11.00;;
9918;SDS011;4998;51.024;13.828;2024-01-30T06:00:31;13.30;;;10.10;;
9918;SDS011;4998;51.024;13.828;2024-01-30T06:02:58;15.13;;;10.10;;
9918;SDS011;4998;51.024;13.828;2024-01-30T06:05:27;17.93;;;11.27;;
9918;SDS011;4998;51.024;13.828;2024-01-30T06:07:54;18.63;;;11.30;;
9918;SDS011;4998;51.024;13.828;2024-01-30T06:10:21;18.10;;;11.10;;
9918;SDS011;4998;51.024;13.828;2024-01-30T06:12:48;17.47;;;11.00;;
9918;SDS011;4998;51.024;13.828;2024-01-30T06:15:15;14.60;;;10.80;;
9918;SDS011;4998;51.024;13.828;2024-01-30T06:17:43;16.10;;;10.97;;
9918;SDS011;4998;51.024;13.828;2024-01-30T06:20:10;14.83;;;10.43;;
9918;SDS011;4998;51.024;13.828;2024-01-30T06:22:39;16.10;;;11.10;;
9918;SDS011;4998;51.024;13.828;2024-01-30T06:25:07;15.60;;;10.03;;
9918;SDS011;4998;51.024;13.828;2024-01-30T06:27:35;15.47;;;10.10;;
9918;SDS011;4998;51.024;13.828;2024-01-30T06:30:02;17.10;;;11.53;;
9918;SDS011;4998;51.024;13.828;2024-01-30T06:32:32;15.93;;;10.10;;
9918;SDS011;4998;51.024;13.828;2024-01-30T06:35:00;14.27;;;10.63;;
9918;SDS011;4998;51.024;13.828;2024-01-30T06:37:28;14.83;;;10.07;;
9918;SDS011;4998;51.024;13.828;2024-01-30T06:39:56;14.03;;;10.70;;
9918;SDS011;4998;51.024;13.828;2024-01-30T06:42:24;17.33;;;11.43;;
9918;SDS011;4998;51.024;13.828;2024-01-30T06:44:51;16.07;;;10.57;;
9918;SDS011;4998;51.024;13.828;2024-01-30T06:47:18;25.43;;;16.40;;
9918;SDS011;4998;51.024;13.828;2024-01-30T06:49:45;27.13;;;15.77;;
9918;SDS011;4998;51.024;13.828;2024-01-30T06:52:12;20.83;;;13.77;;
9918;SDS011;4998;51.024;13.828;2024-01-30T06:54:40;18.50;;;11.40;;
9918;SDS011;4998;51.024;13.828;2024-01-30T06:57:09;16.30;;;10.93;;
9918;SDS011;4998;51.024;13.828;2024-01-30T06:59:39;15.00;;;11.03;;
9918;SDS011;4998;51.024;13.828;2024-01-30T07:02:09;17.30;;;10.90;;
9918;SDS011;4998;51.024;13.828;2024-01-30T07:04:36;19.00;;;12.00;;
9918;SDS011;4998;51.024;13.828;2024-01-30T07:07:04;16.57;;;10.73;;
9918;SDS011;4998;51.024;13.828;2024-01-30T07:09:37;16.90;;;11.77;;
9918;SDS011;4998;51.024;13.828;2024-01-30T07:12:04;15.57;;;11.30;;
9918;SDS011;4998;51.024;13.828;2024-01-30T07:14:34;14.60;;;10.07;;
9918;SDS011;4998;51.024;13.828;2024-01-30T07:17:01;17.50;;;10.60;;
9918;SDS011;4998;51.024;13.828;2024-01-30T07:19:28;14.90;;;10.70;;
9918;SDS011;4998;51.024;13.828;2024-01-30T07:21:55;15.53;;;10.50;;
9918;SDS011;4998;51.024;13.828;2024-01-30T07:24:23;16.00;;;11.30;;
9918;SDS011;4998;51.024;13.828;2024-01-30T07:26:50;16.63;;;11.07;;
9918;SDS011;4998;51.024;13.828;2024-01-30T07:29:18;17.00;;;11.43;;
9918;SDS011;4998;51.024;13.828;2024-01-30T07:31:47;16.47;;;11.07;;
9918;SDS011;4998;51.024;13.828;2024-01-30T07:34:14;15.63;;;11.47;;
9918;SDS011;4998;51.024;13.828;2024-01-30T07:36:41;16.53;;;11.20;;
9918;SDS011;4998;51.024;13.828;2024-01-30T07:39:09;17.57;;;11.23;;
9918;SDS011;4998;51.024;13.828;2024-01-30T07:41:36;16.83;;;11.47;;
9918;SDS011;4998;51.024;13.828;2024-01-30T07:44:03;16.00;;;10.67;;
9918;SDS011;4998;51.024;13.828;2024-01-30T07:46:30;15.63;;;10.40;;
9918;SDS011;4998;51.024;13.828;2024-01-30T07:48:59;14.20;;;10.30;;
9918;SDS011;4998;51.024;13.828;2024-01-30T07:51:27;15.10;;;11.03;;
9918;SDS011;4998;51.024;13.828;2024-01-30T07:54:00;20.37;;;11.20;;
9918;SDS011;4998;51.024;13.828;2024-01-30T07:56:27;14.80;;;10.90;;
9918;SDS011;4998;51.024;13.828;2024-01-30T07:58:54;15.97;;;11.00;;
9918;SDS011;4998;51.024;13.828;2024-01-30T08:01:21;15.27;;;10.70;;
9918;SDS011;4998;51.024;13.828;2024-01-30T08:03:49;16.70;;;11.30;;
9918;SDS011;4998;51.024;13.828;2024-01-30T08:06:18;14.93;;;11.23;;
9918;SDS011;4998;51.024;13.828;2024-01-30T08:08:45;18.00;;;10.97;;
9918;SDS011;4998;51.024;13.828;2024-01-30T08:11:12;17.97;;;10.60;;
9918;SDS011;4998;51.024;13.828;2024-01-30T08:13:40;15.27;;;11.37;;
9918;SDS011;4998;51.024;13.828;2024-01-30T08:16:07;14.77;;;10.13;;
9918;SDS011;4998;51.024;13.828;2024-01-30T08:18:34;14.67;;;9.80;;
9918;SDS011;4998;51.024;13.828;2024-01-30T08:21:01;13.43;;;9.87;;
9918;SDS011;4998;51.024;13.828;2024-01-30T08:23:31;15.17;;;10.40;;
9918;SDS011;4998;51.024;13.828;2024-01-30T08:25:58;15.70;;;11.00;;
9918;SDS011;4998;51.024;13.828;2024-01-30T08:28:25;18.83;;;11.50;;
9918;SDS011;4998;51.024;13.828;2024-01-30T08:30:53;15.07;;;10.80;;
9918;SDS011;4998;51.024;13.828;2024-01-30T08:33:20;16.57;;;10.77;;
9918;SDS011;4998;51.024;13.828;2024-01-30T08:35:47;17.17;;;10.90;;
9918;SDS011;4998;51.024;13.828;2024-01-30T08:38:14;16.60;;;11.40;;
9918;SDS011;4998;51.024;13.828;2024-01-30T08:40:43;14.63;;;10.20;;
9918;SDS011;4998;51.024;13.828;2024-01-30T08:43:10;15.80;;;10.33;;
9918;SDS011;4998;51.024;13.828;2024-01-30T08:45:38;15.47;;;10.47;;
9918;SDS011;4998;51.024;13.828;2024-01-30T08:48:05;16.23;;;10.83;;
9918;SDS011;4998;51.024;13.828;2024-01-30T08:50:35;15.30;;;10.40;;
9918;SDS011;4998;51.024;13.828;2024-01-30T08:53:03;15.80;;;10.50;;
9918;SDS011;4998;51.024;13.828;2024-01-30T08:55:30;15.40;;;10.20;;
9918;SDS011;4998;51.024;13.828;2024-01-30T08:57:59;16.13;;;11.07;;
9918;SDS011;4998;51.024;13.828;2024-01-30T09:00:29;16.10;;;10.50;;
9918;SDS011;4998;51.024;13.828;2024-01-30T09:02:56;13.97;;;10.33;;
9918;SDS011;4998;51.024;13.828;2024-01-30T09:05:23;17.23;;;11.10;;
9918;SDS011;4998;51.024;13.828;2024-01-30T09:07:50;14.20;;;10.40;;
9918;SDS011;4998;51.024;13.828;2024-01-30T09:10:17;15.70;;;10.77;;
9918;SDS011;4998;51.024;13.828;2024-01-30T09:12:45;16.07;;;11.30;;
9918;SDS011;4998;51.024;13.828;2024-01-30T09:15:14;19.07;;;11.20;;
9918;SDS011;4998;51.024;13.828;2024-01-30T09:17:42;16.13;;;10.87;;
9918;SDS011;4998;51.024;13.828;2024-01-30T09:20:09;15.53;;;10.50;;
9918;SDS011;4998;51.024;13.828;2024-01-30T09:22:37;16.40;;;11.83;;
9918;SDS011;4998;51.024;13.828;2024-01-30T09:25:04;13.87;;;9.70;;
9918;SDS011;4998;51.024;13.828;2024-01-30T09:27:32;14.23;;;10.20;;
9918;SDS011;4998;51.024;13.828;2024-01-30T09:29:59;14.30;;;10.57;;
9918;SDS011;4998;51.024;13.828;2024-01-30T09:32:28;19.30;;;11.20;;
9918;SDS011;4998;51.024;13.828;2024-01-30T09:34:55;12.20;;;9.43;;
9918;SDS011;4998;51.024;13.828;2024-01-30T09:37:22;17.07;;;11.17;;
9918;SDS011;4998;51.024;13.828;2024-01-30T09:39:49;14.17;;;10.23;;
9918;SDS011;4998;51.024;13.828;2024-01-30T09:42:18;18.13;;;11.70;;
9918;SDS011;4998;51.024;13.828;2024-01-30T09:44:55;16.20;;;10.90;;
9918;SDS011;4998;51.024;13.828;2024-01-30T09:47:23;14.20;;;10.43;;
9918;SDS011;4998;51.024;13.828;2024-01-30T09:49:52;15.90;;;10.70;;
9918;SDS011;4998;51.024;13.828;2024-01-30T09:52:19;17.63;;;11.30;;
9918;SDS011;4998;51.024;13.828;2024-01-30T09:54:47;13.83;;;11.10;;
9918;SDS011;4998;51.024;13.828;2024-01-30T09:57:16;15.27;;;10.93;;
9918;SDS011;4998;51.024;13.828;2024-01-30T09:59:43;15.13;;;11.00;;
9918;SDS011;4998;51.024;13.828;2024-01-30T10:02:11;16.00;;;11.20;;
9918;SDS011;4998;51.024;13.828;2024-01-30T10:04:39;19.63;;;11.50;;
9918;SDS011;4998;51.024;13.828;2024-01-30T10:07:08;16.07;;;11.30;;
9918;SDS011;4998;51.024;13.828;2024-01-30T10:09:38;14.67;;;10.00;;
9918;SDS011;4998;51.024;13.828;2024-01-30T10:12:05;14.13;;;10.50;;
9918;SDS011;4998;51.024;13.828;2024-01-30T10:14:37;17.20;;;11.00;;
9918;SDS011;4998;51.024;13.828;2024-01-30T10:17:07;13.50;;;9.50;;
9918;SDS011;4998;51.024;13.828;2024-01-30T10:19:35;16.73;;;10.73;;
9918;SDS011;4998;51.024;13.828;2024-01-30T10:22:03;14.83;;;11.00;;
9918;SDS011;4998;51.024;13.828;2024-01-30T10:24:32;15.20;;;10.80;;
9918;SDS011;4998;51.024;13.828;2024-01-30T10:27:01;15.33;;;10.67;;
9918;SDS011;4998;51.024;13.828;2024-01-30T10:29:28;19.47;;;10.83;;
9918;SDS011;4998;51.024;13.828;2024-01-30T10:31:59;14.97;;;10.47;;
9918;SDS011;4998;51.024;13.828;2024-01-30T10:34:26;13.33;;;9.83;;
9918;SDS011;4998;51.024;13.828;2024-01-30T10:37:08;14.87;;;10.10;;
9918;SDS011;4998;51.024;13.828;2024-01-30T10:39:39;17.17;;;9.57;;
9918;SDS011;4998;51.024;13.828;2024-01-30T10:42:10;12.50;;;9.77;;
9918;SDS011;4998;51.024;13.828;2024-01-30T10:44:43;14.13;;;9.00;;
9918;SDS011;4998;51.024;13.828;2024-01-30T10:47:15;12.63;;;8.87;;
9918;SDS011;4998;51.024;13.828;2024-01-30T10:49:48;12.67;;;8.70;;
9918;SDS011;4998;51.024;13.828;2024-01-30T10:52:17;15.37;;;9.97;;
9918;SDS011;4998;51.024;13.828;2024-01-30T10:54:47;14.40;;;9.20;;
9918;SDS011;4998;51.024;13.828;2024-01-30T10:57:17;14.37;;;9.60;;
9918;SDS011;4998;51.024;13.828;2024-01-30T10:59:45;13.70;;;9.73;;
9918;SDS011;4998;51.024;13.828;2024-01-30T11:02:13;15.17;;;10.30;;
9918;SDS011;4998;51.024;13.828;2024-01-30T11:04:41;14.30;;;9.67;;
9918;SDS011;4998;51.024;13.828;2024-01-30T11:07:15;15.33;;;10.57;;
9918;SDS011;4998;51.024;13.828;2024-01-30T11:09:53;13.70;;;9.27;;
9918;SDS011;4998;51.024;13.828;2024-01-30T11:12:27;13.70;;;9.53;;
9918;SDS011;4998;51.024;13.828;2024-01-30T11:15:02;14.97;;;10.60;;
9918;SDS011;4998;51.024;13.828;2024-01-30T11:17:39;15.07;;;11.50;;
9918;SDS011;4998;51.024;13.828;2024-01-30T11:20:11;14.17;;;10.07;;
9918;SDS011;4998;51.024;13.828;2024-01-30T11:22:41;15.23;;;10.57;;
9918;SDS011;4998;51.024;13.828;2024-01-30T11:25:14;15.90;;;10.30;;
9918;SDS011;4998;51.024;13.828;2024-01-30T11:27:42;14.27;;;10.53;;
9918;SDS011;4998;51.024;13.828;2024-01-30T11:30:09;15.87;;;10.47;;
9918;SDS011;4998;51.024;13.828;2024-01-30T11:32:37;14.37;;;9.70;;
9918;SDS011;4998;51.024;13.828;2024-01-30T11:35:05;15.00;;;10.83;;
9918;SDS011;4998;51.024;13.828;2024-01-30T11:37:36;18.00;;;11.57;;
9918;SDS011;4998;51.024;13.828;2024-01-30T11:40:04;16.70;;;11.53;;
9918;SDS011;4998;51.024;13.828;2024-01-30T11:42:35;15.70;;;10.70;;
9918;SDS011;4998;51.024;13.828;2024-01-30T11:45:05;15.80;;;11.67;;
9918;SDS011;4998;51.024;13.828;2024-01-30T11:47:34;17.77;;;11.60;;
9918;SDS011;4998;51.024;13.828;2024-01-30T11:50:02;17.20;;;12.00;;
9918;SDS011;4998;51.024;13.828;2024-01-30T11:52:31;15.90;;;11.40;;
9918;SDS011;4998;51.024;13.828;2024-01-30T11:54:59;20.67;;;11.47;;
9918;SDS011;4998;51.024;13.828;2024-01-30T11:57:28;20.00;;;12.07;;
9918;SDS011;4998;51.024;13.828;2024-01-30T11:59:56;16.80;;;11.40;;
9918;SDS011;4998;51.024;13.828;2024-01-30T12:02:24;19.40;;;11.00;;
9918;SDS011;4998;51.024;13.828;2024-01-30T12:04:51;19.80;;;12.60;;
9918;SDS011;4998;51.024;13.828;2024-01-30T12:07:18;19.10;;;12.23;;
9918;SDS011;4998;51.024;13.828;2024-01-30T12:09:52;18.83;;;12.10;;
9918;SDS011;4998;51.024;13.828;2024-01-30T12:12:20;14.30;;;11.10;;
9918;SDS011;4998;51.024;13.828;2024-01-30T12:14:49;18.20;;;11.60;;
9918;SDS011;4998;51.024;13.828;2024-01-30T12:17:25;15.60;;;11.60;;
9918;SDS011;4998;51.024;13.828;2024-01-30T12:20:02;17.13;;;11.77;;
9918;SDS011;4998;51.024;13.828;2024-01-30T12:22:32;15.67;;;11.30;;
9918;SDS011;4998;51.024;13.828;2024-01-30T12:25:03;18.63;;;12.40;;
9918;SDS011;4998;51.024;13.828;2024-01-30T12:27:31;18.33;;;12.77;;
9918;SDS011;4998;51.024;13.828;2024-01-30T12:29:59;17.33;;;12.47;;
9918;SDS011;4998;51.024;13.828;2024-01-30T12:32:29;21.00;;;12.50;;
9918;SDS011;4998;51.024;13.828;2024-01-30T12:34:56;16.37;;;12.03;;
9918;SDS011;4998;51.024;13.828;2024-01-30T12:37:24;15.20;;;11.67;;
9918;SDS011;4998;51.024;13.828;2024-01-30T12:39:52;16.07;;;11.70;;
9918;SDS011;4998;51.024;13.828;2024-01-30T12:42:20;26.13;;;12.40;;
9918;SDS011;4998;51.024;13.828;2024-01-30T12:44:48;16.93;;;11.53;;
9918;SDS011;4998;51.024;13.828;2024-01-30T12:47:15;17.50;;;11.37;;
9918;SDS011;4998;51.024;13.828;2024-01-30T12:49:44;17.10;;;12.03;;
9918;SDS011;4998;51.024;13.828;2024-01-30T12:52:11;17.10;;;12.13;;
9918;SDS011;4998;51.024;13.828;2024-01-30T12:54:40;18.13;;;12.47;;
9918;SDS011;4998;51.024;13.828;2024-01-30T12:57:08;18.80;;;12.63;;
9918;SDS011;4998;51.024;13.828;2024-01-30T12:59:35;18.37;;;12.00;;
9918;SDS011;4998;51.024;13.828;2024-01-30T13:02:04;20.07;;;13.00;;
9918;SDS011;4998;51.024;13.828;2024-01-30T13:04:32;18.57;;;12.03;;
9918;SDS011;4998;51.024;13.828;2024-01-30T13:07:01;17.83;;;12.60;;
9918;SDS011;4998;51.024;13.828;2024-01-30T13:09:29;18.40;;;12.67;;
9918;SDS011;4998;51.024;13.828;2024-01-30T13:11:56;16.73;;;11.93;;
9918;SDS011;4998;51.024;13.828;2024-01-30T13:14:25;17.27;;;11.50;;
9918;SDS011;4998;51.024;13.828;2024-01-30T13:16:52;16.20;;;12.00;;
9918;SDS011;4998;51.024;13.828;2024-01-30T13:19:20;17.27;;;11.20;;
9918;SDS011;4998;51.024;13.828;2024-01-30T13:21:47;18.30;;;11.90;;
9918;SDS011;4998;51.024;13.828;2024-01-30T13:24:16;19.97;;;12.30;;
9918;SDS011;4998;51.024;13.828;2024-01-30T13:26:46;16.00;;;12.20;;
9918;SDS011;4998;51.024;13.828;2024-01-30T13:29:14;18.03;;;11.87;;
9918;SDS011;4998;51.024;13.828;2024-01-30T13:31:42;17.07;;;11.53;;
9918;SDS011;4998;51.024;13.828;2024-01-30T13:34:11;19.57;;;13.30;;
9918;SDS011;4998;51.024;13.828;2024-01-30T13:36:39;18.90;;;12.70;;
9918;SDS011;4998;51.024;13.828;2024-01-30T13:39:06;18.63;;;12.73;;
9918;SDS011;4998;51.024;13.828;2024-01-30T13:41:37;19.70;;;12.73;;
9918;SDS011;4998;51.024;13.828;2024-01-30T13:44:04;19.63;;;12.40;;
9918;SDS011;4998;51.024;13.828;2024-01-30T13:46:32;19.83;;;12.50;;
9918;SDS011;4998;51.024;13.828;2024-01-30T13:48:58;20.87;;;12.90;;
9918;SDS011;4998;51.024;13.828;2024-01-30T13:51:26;16.40;;;12.10;;
9918;SDS011;4998;51.024;13.828;2024-01-30T13:53:53;18.37;;;12.60;;
9918;SDS011;4998;51.024;13.828;2024-01-30T13:56:21;17.10;;;11.87;;
9918;SDS011;4998;51.024;13.828;2024-01-30T13:58:50;17.60;;;12.90;;
9918;SDS011;4998;51.024;13.828;2024-01-30T14:01:17;17.37;;;12.33;;
9918;SDS011;4998;51.024;13.828;2024-01-30T14:03:44;21.30;;;12.87;;
9918;SDS011;4998;51.024;13.828;2024-01-30T14:06:12;18.03;;;12.30;;
9918;SDS011;4998;51.024;13.828;2024-01-30T14:08:39;18.47;;;12.60;;
9918;SDS011;4998;51.024;13.828;2024-01-30T14:11:06;16.87;;;12.03;;
9918;SDS011;4998;51.024;13.828;2024-01-30T14:13:33;19.77;;;13.17;;
9918;SDS011;4998;51.024;13.828;2024-01-30T14:16:02;20.23;;;12.63;;
9918;SDS011;4998;51.024;13.828;2024-01-30T14:18:30;21.30;;;13.13;;
9918;SDS011;4998;51.024;13.828;2024-01-30T14:20:57;19.13;;;12.40;;
9918;SDS011;4998;51.024;13.828;2024-01-30T14:23:24;21.23;;;13.27;;
9918;SDS011;4998;51.024;13.828;2024-01-30T14:25:52;17.57;;;12.30;;
9918;SDS011;4998;51.024;13.828;2024-01-30T14:28:19;18.43;;;11.80;;
9918;SDS011;4998;51.024;13.828;2024-01-30T14:30:46;18.87;;;13.13;;
9918;SDS011;4998;51.024;13.828;2024-01-30T14:33:14;19.93;;;12.80;;
9918;SDS011;4998;51.024;13.828;2024-01-30T14:35:42;19.57;;;12.63;;
9918;SDS011;4998;51.024;13.828;2024-01-30T14:38:09;17.40;;;11.87;;
9918;SDS011;4998;51.024;13.828;2024-01-30T14:40:36;19.23;;;12.90;;